createdAt,value
2023-01-12T00:01:03.676Z,69.76
2023-01-12T00:03:29.956Z,69.42
2023-01-12T00:05:56.280Z,68.49
2023-01-12T00:08:22.626Z,68.19
2023-01-12T00:10:49.180Z,67.49
2023-01-12T00:13:15.479Z,67.25
2023-01-12T00:15:41.865Z,67.67
2023-01-12T00:18:08.170Z,67.52
2023-01-12T00:20:34.504Z,67.75
2023-01-12T00:23:00.832Z,67.92
2023-01-12T00:25:27.237Z,67.88
2023-01-12T00:27:53.519Z,67.25
2023-01-12T00:30:19.809Z,67.06
2023-01-12T00:32:46.240Z,66.91
2023-01-12T00:35:12.607Z,67.29
2023-01-12T00:37:38.958Z,66.88
2023-01-12T00:40:05.232Z,66.05
2023-01-12T00:42:31.637Z,65.58
2023-01-12T00:44:58.058Z,65.96
2023-01-12T00:47:24.437Z,66.35
2023-01-12T00:49:50.733Z,66.78
2023-01-12T00:52:29.477Z,66.34
2023-01-12T00:54:57.069Z,66.78
2023-01-12T00:57:23.358Z,66.61
2023-01-12T00:59:49.901Z,66.87
2023-01-12T01:02:16.307Z,66.69
2023-01-12T01:04:42.706Z,66.82
2023-01-12T01:07:09.118Z,66.82
2023-01-12T01:09:35.423Z,66.53
2023-01-12T01:12:01.850Z,66.43
2023-01-12T01:14:28.231Z,66.42
2023-01-12T01:16:54.593Z,66.44
2023-01-12T01:19:21.053Z,66.49
2023-01-12T01:21:47.355Z,66.49
2023-01-12T01:24:13.643Z,66.20
2023-01-12T01:26:40.099Z,66.47
2023-01-12T01:29:06.383Z,66.01
2023-01-12T01:31:32.685Z,66.50
2023-01-12T01:33:59.045Z,66.62
2023-01-12T01:36:25.392Z,65.91
2023-01-12T01:38:51.715Z,65.51
2023-01-12T01:41:18.063Z,64.76
2023-01-12T01:43:44.446Z,65.53
2023-01-12T01:46:10.786Z,65.32
2023-01-12T01:48:37.131Z,64.98
2023-01-12T01:51:03.471Z,64.11
2023-01-12T01:53:30.016Z,63.74
2023-01-12T01:55:56.376Z,64.81
2023-01-12T01:58:22.714Z,65.09
2023-01-12T02:00:49.132Z,66.10
2023-01-12T02:03:15.442Z,66.21
2023-01-12T02:05:42.411Z,66.63
2023-01-12T02:08:08.773Z,67.22
2023-01-12T02:10:35.063Z,66.95
2023-01-12T02:13:02.422Z,66.39
2023-01-12T02:15:28.899Z,65.86
2023-01-12T02:17:55.199Z,65.71
2023-01-12T02:20:22.680Z,66.00
2023-01-12T02:22:48.989Z,65.55
2023-01-12T02:25:15.594Z,65.32
2023-01-12T02:27:42.027Z,65.28
2023-01-12T02:30:08.387Z,66.07
2023-01-12T02:32:34.745Z,66.03
2023-01-12T02:35:01.152Z,66.07
2023-01-12T02:37:27.640Z,65.58
2023-01-12T02:39:53.988Z,65.40
2023-01-12T02:42:20.272Z,65.35
2023-01-12T02:44:46.756Z,65.04
2023-01-12T02:47:15.148Z,64.39
2023-01-12T02:49:41.448Z,64.80
2023-01-12T02:52:07.800Z,65.12
2023-01-12T02:54:34.139Z,65.26
2023-01-12T02:57:00.819Z,64.26
2023-01-12T02:59:27.111Z,64.45
2023-01-12T03:01:53.471Z,64.28
2023-01-12T03:04:19.771Z,64.23
2023-01-12T03:06:46.056Z,63.91
2023-01-12T03:09:12.325Z,63.88
2023-01-12T03:11:42.735Z,63.91
2023-01-12T03:14:09.021Z,63.72
2023-01-12T03:16:35.368Z,64.50
2023-01-12T03:19:01.788Z,65.06
2023-01-12T03:21:28.078Z,64.34
2023-01-12T03:23:54.351Z,65.05
2023-01-12T03:26:20.758Z,64.60
2023-01-12T03:28:47.192Z,64.45
2023-01-12T03:31:13.750Z,64.76
2023-01-12T03:33:40.153Z,65.17
2023-01-12T03:36:06.595Z,65.29
2023-01-12T03:38:32.883Z,65.49
2023-01-12T03:40:59.229Z,65.61
2023-01-12T03:43:25.568Z,65.49
2023-01-12T03:45:52.000Z,64.87
2023-01-12T03:48:18.344Z,65.02
2023-01-12T03:50:44.665Z,64.76
2023-01-12T03:53:11.076Z,65.05
2023-01-12T03:55:37.415Z,65.41
2023-01-12T03:58:04.102Z,65.23
2023-01-12T04:00:30.472Z,65.79
2023-01-12T04:02:56.848Z,67.07
2023-01-12T04:05:23.374Z,66.85
2023-01-12T04:07:49.721Z,67.94
2023-01-12T04:10:16.057Z,69.28
2023-01-12T04:12:42.400Z,69.12
2023-01-12T04:15:08.972Z,69.23
2023-01-12T04:17:35.361Z,70.35
2023-01-12T04:20:01.825Z,69.77
2023-01-12T04:22:30.225Z,69.68
2023-01-12T04:24:56.612Z,69.10
2023-01-12T04:27:23.114Z,69.50
2023-01-12T04:29:49.613Z,69.50
2023-01-12T04:32:15.983Z,69.08
2023-01-12T04:34:42.561Z,69.63
2023-01-12T04:37:09.004Z,68.56
2023-01-12T04:39:35.469Z,69.17
2023-01-12T04:42:01.871Z,67.00
2023-01-12T04:44:28.444Z,66.67
2023-01-12T04:46:55.116Z,66.15
2023-01-12T04:49:21.499Z,66.34
2023-01-12T04:51:47.828Z,67.03
2023-01-12T04:54:14.201Z,67.43
2023-01-12T04:56:40.581Z,67.98
2023-01-12T04:59:06.942Z,68.44
2023-01-12T05:01:35.893Z,68.09
2023-01-12T05:04:02.569Z,67.75
2023-01-12T05:06:29.493Z,66.97
2023-01-12T05:08:55.913Z,67.52
2023-01-12T05:11:23.676Z,67.03
2023-01-12T05:13:50.043Z,67.01
2023-01-12T05:16:16.433Z,67.67
2023-01-12T05:18:42.831Z,68.39
2023-01-12T05:21:09.266Z,68.19
2023-01-12T05:23:35.969Z,68.54
2023-01-12T05:26:02.393Z,69.25
2023-01-12T05:28:28.820Z,69.55
2023-01-12T05:30:55.248Z,69.57
2023-01-12T05:33:23.870Z,69.10
2023-01-12T05:35:50.238Z,69.23
2023-01-12T05:38:16.584Z,68.61
2023-01-12T05:40:42.908Z,67.23
2023-01-12T05:43:09.262Z,66.38
2023-01-12T05:45:35.643Z,66.23
2023-01-12T05:48:02.002Z,66.52
2023-01-12T05:50:28.379Z,65.47
2023-01-12T05:52:54.746Z,65.39
2023-01-12T05:55:21.114Z,65.23
2023-01-12T05:57:47.487Z,63.68
2023-01-12T06:00:13.831Z,63.97
2023-01-12T06:02:40.210Z,63.35
2023-01-12T06:05:06.540Z,62.72
2023-01-12T06:07:32.879Z,63.65
2023-01-12T06:09:59.412Z,63.38
2023-01-12T06:12:25.790Z,62.96
2023-01-12T06:14:52.162Z,62.37
2023-01-12T06:17:18.553Z,61.94
2023-01-12T06:19:44.935Z,63.07
2023-01-12T06:22:11.277Z,62.68
2023-01-12T06:24:38.620Z,62.88
2023-01-12T06:27:05.429Z,63.19
2023-01-12T06:29:31.800Z,62.35
2023-01-12T06:32:00.548Z,62.46
2023-01-12T06:34:26.922Z,64.71
2023-01-12T06:36:53.288Z,62.09
2023-01-12T06:39:19.676Z,61.87
2023-01-12T06:41:46.055Z,62.75
2023-01-12T06:44:12.391Z,61.74
2023-01-12T06:46:39.170Z,61.14
2023-01-12T06:49:05.767Z,61.25
2023-01-12T06:51:33.917Z,61.48
2023-01-12T06:54:00.251Z,61.15
2023-01-12T06:56:26.844Z,61.73
2023-01-12T06:58:53.700Z,61.32
2023-01-12T07:01:20.397Z,61.76
2023-01-12T07:03:46.803Z,61.64
2023-01-12T07:06:13.148Z,60.56
2023-01-12T07:08:39.811Z,61.07
2023-01-12T07:11:13.324Z,61.03
2023-01-12T07:13:39.668Z,61.41
2023-01-12T07:16:06.040Z,61.32
2023-01-12T07:18:32.437Z,60.83
2023-01-12T07:20:59.842Z,61.50
2023-01-12T07:23:26.565Z,61.33
2023-01-12T07:25:53.456Z,61.31
2023-01-12T07:28:20.415Z,61.31
2023-01-12T07:30:46.835Z,61.32
2023-01-12T07:33:13.446Z,60.93
2023-01-12T07:35:39.801Z,61.24
2023-01-12T07:38:06.377Z,61.32
2023-01-12T07:40:32.943Z,61.35
2023-01-12T07:43:01.399Z,61.13
2023-01-12T07:45:27.767Z,61.05
2023-01-12T07:47:54.403Z,61.09
2023-01-12T07:50:21.028Z,60.73
2023-01-12T07:52:47.373Z,60.94
2023-01-12T07:55:13.740Z,60.59
2023-01-12T07:57:40.959Z,60.36
2023-01-12T08:00:07.425Z,60.12
2023-01-12T08:02:33.825Z,60.34
2023-01-12T08:05:02.286Z,60.40
2023-01-12T08:07:28.663Z,60.67
2023-01-12T08:09:57.206Z,60.57
2023-01-12T08:12:23.599Z,60.45
2023-01-12T08:14:52.390Z,59.60
2023-01-12T08:17:18.722Z,60.18
2023-01-12T08:19:45.052Z,58.91
2023-01-12T08:22:11.434Z,59.40
2023-01-12T08:24:38.302Z,59.77
2023-01-12T08:27:04.673Z,59.88
2023-01-12T08:29:32.069Z,58.55
2023-01-12T08:31:58.480Z,58.47
2023-01-12T08:34:25.104Z,59.02
2023-01-12T08:36:51.488Z,58.85
2023-01-12T08:39:17.847Z,58.96
2023-01-12T08:41:44.226Z,58.61
2023-01-12T08:44:12.508Z,59.48
2023-01-12T08:46:38.961Z,59.08
2023-01-12T08:49:05.364Z,58.82
2023-01-12T08:51:31.774Z,58.96
2023-01-12T08:54:00.313Z,58.82
2023-01-12T08:56:26.748Z,58.28
2023-01-12T08:58:53.119Z,56.54
2023-01-12T09:01:19.565Z,56.78
2023-01-12T09:03:45.981Z,56.30
2023-01-12T09:06:14.410Z,56.44
2023-01-12T09:08:40.906Z,55.32
2023-01-12T09:11:08.299Z,55.14
2023-01-12T09:13:42.184Z,55.54
2023-01-12T09:16:12.849Z,53.06
2023-01-12T09:18:42.019Z,52.71
2023-01-12T09:21:08.366Z,51.15
2023-01-12T09:23:34.804Z,52.23
2023-01-12T09:26:01.197Z,51.20
2023-01-12T09:28:27.576Z,51.80
2023-01-12T09:30:54.452Z,52.74
2023-01-12T09:33:22.325Z,52.87
2023-01-12T09:35:50.786Z,52.40
2023-01-12T09:38:17.135Z,53.82
2023-01-12T09:40:43.720Z,54.10
2023-01-12T09:43:10.089Z,53.83
2023-01-12T09:45:36.866Z,53.45
2023-01-12T09:48:03.252Z,54.66
2023-01-12T09:50:30.403Z,53.60
2023-01-12T09:52:56.769Z,53.20
2023-01-12T09:55:25.198Z,52.61
2023-01-12T09:57:51.544Z,52.43
2023-01-12T10:00:17.930Z,52.67
2023-01-12T10:02:44.367Z,51.68
2023-01-12T10:05:10.763Z,52.21
2023-01-12T10:07:37.143Z,52.98
2023-01-12T10:10:03.923Z,53.23
2023-01-12T10:12:30.332Z,52.84
2023-01-12T10:14:56.705Z,52.80
2023-01-12T10:17:23.040Z,53.50
2023-01-12T10:19:52.053Z,52.69
2023-01-12T10:22:18.414Z,53.83
2023-01-12T10:24:44.748Z,54.39
2023-01-12T10:27:11.382Z,54.99
2023-01-12T10:29:37.765Z,55.84
2023-01-12T10:32:04.132Z,56.44
2023-01-12T10:34:30.460Z,57.69
2023-01-12T10:36:57.042Z,58.33
2023-01-12T10:39:23.498Z,58.40
2023-01-12T10:41:49.897Z,59.75
2023-01-12T10:44:16.284Z,58.48
2023-01-12T10:46:42.807Z,58.45
2023-01-12T10:49:09.148Z,57.85
2023-01-12T10:51:35.528Z,57.52
2023-01-12T10:54:01.869Z,59.77
2023-01-12T10:56:28.222Z,60.24
2023-01-12T10:58:54.613Z,60.22
2023-01-12T11:01:21.075Z,61.35
2023-01-12T11:03:48.602Z,60.46
2023-01-12T11:06:16.009Z,60.70
2023-01-12T11:08:42.618Z,60.37
2023-01-12T11:11:09.418Z,59.63
2023-01-12T11:13:37.860Z,59.28
2023-01-12T11:16:04.213Z,58.60
2023-01-12T11:18:30.592Z,58.85
2023-01-12T11:20:57.080Z,58.40
2023-01-12T11:23:23.656Z,58.36
2023-01-12T11:25:50.044Z,57.67
2023-01-12T11:28:16.535Z,56.11
2023-01-12T11:30:45.097Z,56.19
2023-01-12T11:33:11.451Z,55.84
2023-01-12T11:35:37.815Z,55.98
2023-01-12T11:38:06.594Z,54.78
2023-01-12T11:40:33.135Z,56.13
2023-01-12T11:42:59.775Z,55.21
2023-01-12T11:45:26.160Z,55.51
2023-01-12T11:47:52.511Z,53.53
2023-01-12T11:50:19.171Z,54.39
2023-01-12T11:52:45.539Z,54.28
2023-01-12T11:55:11.877Z,53.80
2023-01-12T11:57:38.560Z,53.36
2023-01-12T12:00:04.967Z,54.00
2023-01-12T12:02:31.469Z,53.03
2023-01-12T12:04:57.873Z,53.34
2023-01-12T12:07:24.213Z,53.07
2023-01-12T12:09:50.649Z,53.30
2023-01-12T12:12:17.343Z,53.34
2023-01-12T12:14:45.784Z,53.25
2023-01-12T12:17:14.221Z,53.60
2023-01-12T12:19:41.123Z,54.00
2023-01-12T12:22:07.472Z,53.53
2023-01-12T12:24:34.860Z,54.65
2023-01-12T12:27:01.456Z,54.37
2023-01-12T12:29:28.045Z,54.88
2023-01-12T12:31:54.394Z,54.21
2023-01-12T12:34:20.718Z,54.37
2023-01-12T12:36:48.153Z,54.62
2023-01-12T12:39:14.611Z,55.18
2023-01-12T12:41:41.578Z,55.39
2023-01-12T12:44:08.068Z,55.71
2023-01-12T12:46:35.100Z,54.84
2023-01-12T12:49:02.177Z,55.49
2023-01-12T12:51:28.726Z,56.32
2023-01-12T12:53:55.301Z,55.36
2023-01-12T12:56:21.640Z,55.55
2023-01-12T12:58:49.038Z,55.36
2023-01-12T13:01:15.662Z,55.33
2023-01-12T13:03:42.214Z,55.43
2023-01-12T13:06:08.622Z,55.58
2023-01-12T13:08:35.008Z,55.69
2023-01-12T13:11:03.675Z,55.09
2023-01-12T13:13:30.231Z,55.14
2023-01-12T13:16:03.035Z,55.21
2023-01-12T13:18:29.452Z,54.41
2023-01-12T13:20:55.824Z,54.82
2023-01-12T13:23:22.441Z,54.82
2023-01-12T13:25:51.141Z,55.48
2023-01-12T13:28:18.089Z,53.60
2023-01-12T13:30:44.523Z,54.48
2023-01-12T13:33:10.919Z,54.67
2023-01-12T13:35:37.503Z,54.09
2023-01-12T13:38:04.230Z,54.37
2023-01-12T13:40:30.778Z,53.64
2023-01-12T13:42:57.094Z,54.54
2023-01-12T13:45:23.483Z,54.12
2023-01-12T13:47:50.106Z,53.08
2023-01-12T13:50:16.549Z,53.23
2023-01-12T13:52:45.928Z,54.02
2023-01-12T13:55:12.420Z,53.35
2023-01-12T13:57:38.786Z,53.11
2023-01-12T14:00:05.158Z,52.95
2023-01-12T14:02:31.833Z,52.79
2023-01-12T14:04:58.598Z,53.11
2023-01-12T14:07:27.609Z,53.07
2023-01-12T14:09:53.988Z,53.01
2023-01-12T14:12:20.388Z,53.02
2023-01-12T14:14:50.366Z,51.74
2023-01-12T14:17:24.140Z,53.02
2023-01-12T14:19:50.477Z,52.91
2023-01-12T14:22:16.851Z,53.58
2023-01-12T14:24:44.210Z,52.51
2023-01-12T14:27:12.647Z,51.30
2023-01-12T14:29:38.996Z,51.87
2023-01-12T14:32:05.343Z,51.24
2023-01-12T14:34:34.471Z,51.19
2023-01-12T14:37:01.084Z,51.99
2023-01-12T14:39:27.463Z,51.06
2023-01-12T14:41:53.924Z,51.57
2023-01-12T14:44:20.322Z,50.50
2023-01-12T14:46:49.980Z,50.87
2023-01-12T14:49:17.044Z,50.26
2023-01-12T14:51:43.591Z,51.08
2023-01-12T14:54:11.084Z,50.98
2023-01-12T14:56:39.965Z,50.93
2023-01-12T14:59:08.832Z,50.86
2023-01-12T15:01:35.295Z,50.91
2023-01-12T15:04:01.685Z,50.34
2023-01-12T15:06:28.049Z,52.68
2023-01-12T15:08:56.977Z,51.25
2023-01-12T15:11:23.531Z,50.72
2023-01-12T15:13:52.323Z,50.88
2023-01-12T15:16:18.717Z,50.66
2023-01-12T15:18:45.078Z,51.31
2023-01-12T15:21:11.449Z,52.31
2023-01-12T15:23:40.115Z,52.40
2023-01-12T15:26:07.729Z,52.17
2023-01-12T15:28:34.254Z,52.75
2023-01-12T15:31:00.867Z,51.86
2023-01-12T15:33:27.377Z,52.37
2023-01-12T15:35:53.865Z,52.47
2023-01-12T15:38:20.245Z,52.35
2023-01-12T15:40:46.604Z,53.36
2023-01-12T15:43:15.529Z,52.68
2023-01-12T15:45:41.984Z,53.00
2023-01-12T15:48:08.356Z,53.38
2023-01-12T15:50:35.250Z,54.21
2023-01-12T15:53:01.645Z,53.71
2023-01-12T15:55:28.063Z,52.91
2023-01-12T15:57:54.836Z,54.45
2023-01-12T16:00:21.163Z,54.40
2023-01-12T16:02:47.548Z,54.07
2023-01-12T16:05:14.610Z,54.45
2023-01-12T16:07:41.920Z,55.41
2023-01-12T16:10:09.471Z,55.42
2023-01-12T16:12:36.011Z,54.89
2023-01-12T16:15:02.378Z,54.30
2023-01-12T16:17:28.753Z,54.70
2023-01-12T16:19:55.357Z,54.33
2023-01-12T16:22:21.729Z,53.75
2023-01-12T16:24:48.231Z,53.99
2023-01-12T16:27:14.657Z,53.41
2023-01-12T16:29:41.008Z,53.91
2023-01-12T16:32:07.512Z,53.25
2023-01-12T16:34:34.183Z,54.34
2023-01-12T16:37:01.195Z,54.58
2023-01-12T16:39:27.566Z,53.07
2023-01-12T16:41:53.938Z,53.24
2023-01-12T16:44:20.710Z,51.54
2023-01-12T16:46:47.619Z,50.65
2023-01-12T16:49:14.122Z,52.00
2023-01-12T16:51:40.501Z,50.96
2023-01-12T16:54:07.068Z,51.24
2023-01-12T16:56:34.301Z,50.42
2023-01-12T16:59:00.675Z,52.90
2023-01-12T17:01:27.862Z,53.73
2023-01-12T17:03:54.582Z,53.56
2023-01-12T17:06:21.076Z,54.85
2023-01-12T17:08:47.659Z,52.91
2023-01-12T17:11:15.267Z,51.32
2023-01-12T17:13:41.656Z,51.24
2023-01-12T17:16:08.670Z,49.87
2023-01-12T17:18:35.317Z,50.64
2023-01-12T17:21:01.813Z,50.15
2023-01-12T17:23:28.750Z,50.57
2023-01-12T17:25:55.819Z,49.36
2023-01-12T17:28:22.459Z,50.06
2023-01-12T17:30:50.216Z,49.34
2023-01-12T17:33:17.143Z,50.14
2023-01-12T17:35:43.802Z,49.04
2023-01-12T17:38:12.554Z,49.89
2023-01-12T17:40:39.946Z,50.62
2023-01-12T17:43:08.537Z,49.94
2023-01-12T17:45:34.945Z,50.09
2023-01-12T17:48:01.387Z,49.20
2023-01-12T17:50:28.213Z,49.27
2023-01-12T17:52:57.019Z,50.69
2023-01-12T17:55:24.431Z,51.07
2023-01-12T17:57:53.115Z,49.71
2023-01-12T18:00:19.712Z,49.86
2023-01-12T18:02:46.375Z,48.97
2023-01-12T18:05:12.829Z,49.72
2023-01-12T18:07:41.906Z,50.96
2023-01-12T18:10:10.838Z,51.22
2023-01-12T18:12:37.246Z,50.88
2023-01-12T18:15:08.174Z,50.58
2023-01-12T18:17:34.524Z,51.35
2023-01-12T18:20:03.967Z,51.23
2023-01-12T18:22:30.712Z,51.25
2023-01-12T18:24:57.180Z,51.21
2023-01-12T18:27:23.860Z,50.62
2023-01-12T18:29:57.406Z,51.94
2023-01-12T18:32:24.619Z,53.45
2023-01-12T18:34:51.011Z,53.21
2023-01-12T18:37:20.493Z,53.76
2023-01-12T18:39:48.959Z,53.55
2023-01-12T18:42:16.069Z,54.84
2023-01-12T18:44:42.662Z,55.15
2023-01-12T18:47:09.088Z,55.15
2023-01-12T18:49:35.605Z,55.04
2023-01-12T18:52:02.054Z,56.02
2023-01-12T18:54:37.400Z,55.85
2023-01-12T18:57:12.894Z,54.89
2023-01-12T18:59:41.707Z,54.86
2023-01-12T19:02:08.881Z,54.07
2023-01-12T19:04:35.840Z,53.90
2023-01-12T19:07:02.190Z,53.59
2023-01-12T19:09:32.138Z,53.63
2023-01-12T19:11:58.813Z,53.76
2023-01-12T19:14:25.201Z,53.86
2023-01-12T19:16:51.580Z,54.32
2023-01-12T19:19:17.923Z,53.71
2023-01-12T19:21:44.308Z,53.85
2023-01-12T19:24:10.649Z,52.86
2023-01-12T19:26:37.026Z,53.13
2023-01-12T19:29:06.177Z,52.72
2023-01-12T19:31:32.543Z,52.82
2023-01-12T19:33:59.233Z,53.25
2023-01-12T19:36:27.391Z,52.83
2023-01-12T19:38:53.743Z,53.52
2023-01-12T19:41:20.074Z,53.72
2023-01-12T19:43:46.953Z,53.08
2023-01-12T19:46:13.410Z,53.20
2023-01-12T19:48:42.984Z,53.23
2023-01-12T19:51:11.056Z,53.17
2023-01-12T19:53:38.414Z,53.21
2023-01-12T19:56:05.066Z,53.09
2023-01-12T19:58:31.868Z,53.62
2023-01-12T20:00:59.937Z,53.20
2023-01-12T20:03:27.361Z,51.32
2023-01-12T20:05:56.274Z,52.42
2023-01-12T20:08:23.690Z,51.81
2023-01-12T20:10:51.051Z,49.65
2023-01-12T20:13:17.421Z,48.79
2023-01-12T20:15:43.855Z,48.83
2023-01-12T20:18:12.949Z,49.20
2023-01-12T20:20:40.348Z,48.34
2023-01-12T20:23:07.974Z,48.43
2023-01-12T20:25:35.890Z,47.34
2023-01-12T20:28:02.268Z,47.74
2023-01-12T20:30:43.734Z,47.47
2023-01-12T20:33:12.226Z,47.65
2023-01-12T20:35:38.638Z,47.37
2023-01-12T20:38:05.330Z,46.26
2023-01-12T20:40:31.782Z,46.43
2023-01-12T20:42:58.258Z,46.33
2023-01-12T20:45:27.785Z,45.71
2023-01-12T20:47:54.880Z,45.65
2023-01-12T20:50:23.545Z,43.98
2023-01-12T20:52:54.479Z,44.28
2023-01-12T20:55:22.127Z,43.93
2023-01-12T20:57:48.474Z,44.06
2023-01-12T21:00:15.725Z,43.89
2023-01-12T21:02:42.056Z,43.18
2023-01-12T21:05:08.440Z,45.13
2023-01-12T21:07:35.053Z,45.59
2023-01-12T21:10:01.387Z,47.18
2023-01-12T21:12:28.070Z,47.55
2023-01-12T21:14:54.429Z,47.71
2023-01-12T21:17:20.826Z,49.71
2023-01-12T21:19:47.212Z,50.42
2023-01-12T21:22:13.776Z,51.05
2023-01-12T21:24:40.145Z,50.88
2023-01-12T21:27:06.752Z,50.52
2023-01-12T21:29:35.412Z,50.51
2023-01-12T21:32:01.856Z,51.35
2023-01-12T21:34:30.877Z,51.65
2023-01-12T21:36:57.253Z,52.24
2023-01-12T21:39:25.924Z,52.48
2023-01-12T21:41:52.402Z,52.14
2023-01-12T21:44:21.078Z,53.19
2023-01-12T21:46:49.624Z,52.56
2023-01-12T21:49:16.273Z,53.33
2023-01-12T21:51:42.631Z,53.39
2023-01-12T21:54:09.184Z,53.54
2023-01-12T21:56:35.735Z,53.96
2023-01-12T21:59:02.116Z,53.66
2023-01-12T22:01:28.707Z,53.70
2023-01-12T22:03:57.502Z,52.89
2023-01-12T22:06:23.929Z,52.68
2023-01-12T22:08:50.444Z,53.16
2023-01-12T22:11:16.841Z,54.12
2023-01-12T22:13:45.487Z,54.12
2023-01-12T22:16:14.487Z,54.41
2023-01-12T22:18:41.088Z,53.89
2023-01-12T22:21:07.423Z,53.67
2023-01-12T22:23:33.969Z,54.98
2023-01-12T22:26:00.307Z,54.67
2023-01-12T22:28:27.692Z,54.34
2023-01-12T22:30:54.023Z,55.43
2023-01-12T22:33:20.373Z,53.76
2023-01-12T22:35:46.766Z,52.99
2023-01-12T22:38:13.129Z,52.66
2023-01-12T22:40:39.527Z,51.50
2023-01-12T22:43:07.664Z,50.33
2023-01-12T22:45:34.089Z,49.48
2023-01-12T22:48:00.510Z,50.00
2023-01-12T22:50:26.841Z,50.68
2023-01-12T22:52:53.221Z,50.35
2023-01-12T22:55:21.138Z,50.35
2023-01-12T22:57:49.548Z,49.82
2023-01-12T23:00:20.846Z,50.35
2023-01-12T23:02:47.289Z,49.99
2023-01-12T23:05:13.821Z,49.50
2023-01-12T23:07:40.195Z,48.93
2023-01-12T23:10:09.042Z,49.73
2023-01-12T23:12:35.538Z,49.39
2023-01-12T23:15:01.916Z,49.28
2023-01-12T23:17:28.850Z,49.60
2023-01-12T23:19:55.228Z,49.36
2023-01-12T23:22:21.592Z,49.50
2023-01-12T23:24:50.087Z,49.70
2023-01-12T23:27:16.694Z,48.99
2023-01-12T23:29:45.104Z,49.84
2023-01-12T23:32:12.598Z,49.59
2023-01-12T23:34:40.006Z,51.32
2023-01-12T23:37:08.428Z,50.67
2023-01-12T23:39:34.799Z,50.58
2023-01-12T23:42:01.171Z,50.38
2023-01-12T23:44:27.713Z,50.60
2023-01-12T23:46:54.441Z,49.86
2023-01-12T23:49:20.844Z,50.85
2023-01-12T23:51:47.198Z,50.16
2023-01-12T23:54:13.591Z,51.05
2023-01-12T23:56:40.963Z,50.40
2023-01-12T23:59:07.303Z,50.03
